Airport ICAO


18:19 UTC

16°C

Clear skies


An affordable passengers' Moving Map for your aircraft. Made for the iPad and the iPhone
More information here

LFLY Bron


Lyon FRANCE   VFR CAVOK


METAR LFLY 231800Z AUTO 02007KT CAVOK 16/04 Q1024 NOSIG 0h19min

TAF LFLY 231700Z 2318/2418 35006KT CAVOK TEMPO 2402/2410 VRB03KT PROB30 TEMPO 2403/2407 4000 BR 1h19min





NOTAMS

OPEN